Time;durP1;ratioP1;P1;durP2;ratioP2;P2;SDS_P1;SDS_P2;PMS_P1;PMS_P2;Temp;Humidity;BMP_temperature;BMP_pressure;BME280_temperature;BME280_humidity;BME280_pressure;Samples;Min_cycle;Max_cycle;Signal;HPM_P1;HPM_P2
2021/06/21 00:02:14;;;;;;;2.97;1.30;;;;;;;19.28;100.00;100083.84;4973132;28;20707;-75
2021/06/21 00:04:42;;;;;;;2.15;1.20;;;;;;;19.33;100.00;100085.53;4974462;28;20239;-75
2021/06/21 00:07:12;;;;;;;1.25;1.02;;;;;;;19.29;100.00;100079.91;4940634;28;20221;-75
2021/06/21 00:09:41;;;;;;;2.30;1.25;;;;;;;19.28;100.00;100083.00;4993340;28;20177;-75
2021/06/21 00:12:08;;;;;;;1.88;1.00;;;;;;;19.37;100.00;100087.25;5012950;28;20744;-76
2021/06/21 00:14:33;;;;;;;2.13;1.00;;;;;;;19.35;100.00;100094.28;5006252;28;20212;-75
2021/06/21 00:17:04;;;;;;;1.77;1.10;;;;;;;19.45;100.00;100093.81;5025996;28;20904;-75
2021/06/21 00:19:32;;;;;;;2.15;1.08;;;;;;;19.41;100.00;100095.66;5005130;28;20227;-76
2021/06/21 00:22:01;;;;;;;1.98;1.00;;;;;;;19.41;100.00;100098.41;5013916;28;20228;-75
2021/06/21 00:24:29;;;;;;;3.63;1.38;;;;;;;19.37;100.00;100084.50;4997609;28;20262;-76
2021/06/21 00:26:54;;;;;;;2.15;1.00;;;;;;;19.36;100.00;100090.38;5015864;28;20243;-76
2021/06/21 00:29:20;;;;;;;1.65;1.00;;;;;;;19.39;100.00;100095.19;4998602;28;20180;-75
2021/06/21 00:31:51;;;;;;;2.15;1.13;;;;;;;19.47;100.00;100083.28;4997814;28;20248;-76
2021/06/21 00:34:19;;;;;;;1.42;0.80;;;;;;;19.38;100.00;100082.56;5015588;28;20679;-78
2021/06/21 00:36:47;;;;;;;2.65;1.10;;;;;;;19.33;100.00;100082.78;5013936;28;20281;-76
2021/06/21 00:39:15;;;;;;;1.92;1.27;;;;;;;19.40;100.00;100083.03;4977965;28;20198;-76
2021/06/21 00:41:40;;;;;;;2.42;1.10;;;;;;;19.43;100.00;100082.31;4973974;28;20229;-76
2021/06/21 00:44:08;;;;;;;1.85;1.00;;;;;;;19.26;100.00;100068.78;4995976;28;20211;-75
2021/06/21 00:46:36;;;;;;;1.33;1.00;;;;;;;19.39;100.00;100084.16;4995753;28;20220;-76
2021/06/21 00:49:05;;;;;;;2.90;1.10;;;;;;;19.51;100.00;100087.75;4995332;28;20184;-76
2021/06/21 00:51:30;;;;;;;1.45;0.90;;;;;;;19.64;100.00;100088.53;4976704;28;20232;-75
2021/06/21 00:53:56;;;;;;;1.42;0.98;;;;;;;19.63;100.00;100075.91;4994039;28;20209;-77
2021/06/21 00:56:24;;;;;;;2.60;1.13;;;;;;;19.66;100.00;100086.25;4978160;28;20232;-75
2021/06/21 00:59:00;;;;;;;2.47;1.30;;;;;;;19.50;100.00;100079.81;4978902;28;20670;-76
2021/06/21 01:01:26;;;;;;;1.88;1.00;;;;;;;19.42;100.00;100072.47;4993313;28;20224;-76
2021/06/21 01:03:54;;;;;;;1.42;1.10;;;;;;;19.35;100.00;100055.69;4994313;28;20208;-74
2021/06/21 01:06:22;;;;;;;2.05;1.20;;;;;;;19.34;100.00;100048.59;4993850;28;20224;-73
2021/06/21 01:08:48;;;;;;;1.00;1.00;;;;;;;19.26;100.00;100046.75;5010504;28;20192;-75
2021/06/21 01:11:14;;;;;;;2.58;1.05;;;;;;;19.22;100.00;100029.31;4973313;28;20713;-74
2021/06/21 01:13:55;;;;;;;2.88;1.20;;;;;;;19.13;100.00;100025.84;4977587;28;20224;-75
2021/06/21 01:16:47;;;;;;;2.17;1.20;;;;;;;19.11;100.00;100010.84;4991997;28;20714;-76
2021/06/21 01:19:36;;;;;;;2.55;1.50;;;;;;;19.05;100.00;100009.47;4979761;28;20181;-75
2021/06/21 01:22:37;;;;;;;4.13;1.30;;;;;;;19.13;100.00;100008.53;5013944;28;20271;-75
2021/06/21 01:25:25;;;;;;;2.13;1.02;;;;;;;19.13;100.00;100001.06;4996607;28;20173;-76
2021/06/21 01:28:25;;;;;;;1.20;1.08;;;;;;;19.11;100.00;99988.78;4994017;28;20632;-76
2021/06/21 01:31:02;;;;;;;2.00;0.95;;;;;;;19.11;100.00;99994.31;4998512;28;20225;-75
2021/06/21 01:33:30;;;;;;;2.78;1.10;;;;;;;19.13;100.00;99992.81;5013436;28;20209;-76
2021/06/21 01:36:06;;;;;;;1.48;0.95;;;;;;;19.04;100.00;99988.56;4977126;28;20729;-75
2021/06/21 01:38:36;;;;;;;2.67;1.00;;;;;;;19.08;100.00;99995.81;4977989;28;20224;-74
2021/06/21 01:41:04;;;;;;;2.67;1.17;;;;;;;19.11;100.00;100003.38;4983612;28;20285;-74
2021/06/21 01:43:32;;;;;;;2.15;0.90;;;;;;;19.24;100.00;100009.69;4974037;28;20248;-75
2021/06/21 01:45:58;;;;;;;2.70;1.05;;;;;;;19.25;100.00;100014.84;5032161;28;20228;-76
2021/06/21 01:48:26;;;;;;;2.83;0.90;;;;;;;19.26;100.00;100024.72;5000157;28;20184;-75
2021/06/21 01:50:55;;;;;;;1.63;1.08;;;;;;;19.17;100.00;100021.25;5003055;28;20243;-75
2021/06/21 01:53:24;;;;;;;3.35;1.23;;;;;;;19.26;100.00;100018.41;4996999;28;20254;-75
2021/06/21 01:56:04;;;;;;;1.23;0.93;;;;;;;19.13;100.00;100019.53;4979926;28;20224;-74
2021/06/21 01:58:37;;;;;;;1.77;1.00;;;;;;;19.26;100.00;100019.19;4996914;28;20189;-75
2021/06/21 02:01:03;;;;;;;2.90;1.17;;;;;;;19.18;100.00;100011.88;4964235;28;20232;-74
2021/06/21 02:03:29;;;;;;;1.80;0.95;;;;;;;19.07;100.00;100015.41;4980308;28;20209;-74
2021/06/21 02:05:54;;;;;;;1.88;1.10;;;;;;;18.93;100.00;100010.19;4994696;28;20292;-75
2021/06/21 02:08:21;;;;;;;2.35;1.17;;;;;;;19.12;100.00;100013.25;4979476;28;20550;-74
2021/06/21 02:10:53;;;;;;;3.08;1.20;;;;;;;19.18;100.00;100011.06;4978722;28;20267;-73
2021/06/21 02:13:20;;;;;;;3.53;1.20;;;;;;;19.13;100.00;100003.81;4992485;28;20209;-75
2021/06/21 02:15:48;;;;;;;1.73;1.30;;;;;;;19.31;100.00;100008.75;4968018;28;20217;-75
2021/06/21 02:18:15;;;;;;;1.88;1.13;;;;;;;19.23;100.00;100003.38;4979908;28;20196;-75
2021/06/21 02:20:41;;;;;;;3.58;1.33;;;;;;;19.28;100.00;99992.94;4979132;28;20220;-73
2021/06/21 02:23:07;;;;;;;3.95;1.50;;;;;;;19.13;100.00;99989.25;5012149;28;20209;-73
2021/06/21 02:25:35;;;;;;;4.72;1.67;;;;;;;19.17;100.00;99987.41;5011435;28;20302;-74
2021/06/21 02:28:02;;;;;;;3.35;1.55;;;;;;;18.71;100.00;99978.75;4979889;28;20177;-75
2021/06/21 02:30:34;;;;;;;2.10;1.48;;;;;;;18.62;100.00;99984.34;4975032;28;20249;-75
2021/06/21 02:33:02;;;;;;;5.25;1.88;;;;;;;18.82;100.00;99993.69;4977243;28;20201;-75
2021/06/21 02:35:28;;;;;;;1.63;1.45;;;;;;;18.97;100.00;99991.91;4975899;28;20220;-75
2021/06/21 02:37:54;;;;;;;3.22;1.60;;;;;;;18.79;100.00;99989.66;4976421;28;20226;-75
2021/06/21 02:40:19;;;;;;;5.25;1.65;;;;;;;18.88;100.00;99992.28;4993537;28;20189;-74
2021/06/21 02:42:47;;;;;;;3.53;1.77;;;;;;;18.65;100.00;99991.91;4976621;28;20255;-74
2021/06/21 02:45:15;;;;;;;3.65;1.88;;;;;;;18.72;100.00;99991.38;4999220;28;20605;-75
2021/06/21 02:47:42;;;;;;;3.65;1.95;;;;;;;18.83;100.00;99995.25;5031043;28;20658;-74
2021/06/21 02:50:07;;;;;;;3.22;2.05;;;;;;;18.57;100.00;100000.25;5009702;28;20184;-75
2021/06/21 02:52:48;;;;;;;3.00;2.05;;;;;;;18.46;100.00;100010.13;4979343;28;20266;-75
2021/06/21 02:55:22;;;;;;;2.40;2.20;;;;;;;18.08;100.00;99985.88;5009899;28;20208;-77
2021/06/21 02:58:26;;;;;;;3.75;2.58;;;;;;;17.92;100.00;99982.13;4995206;28;20197;-74
2021/06/21 03:00:55;;;;;;;3.70;2.58;;;;;;;17.77;100.00;99975.28;4977795;28;20327;-77
2021/06/21 03:03:24;;;;;;;5.00;3.03;;;;;;;17.71;100.00;99967.59;5010974;28;20193;-75
2021/06/21 03:05:52;;;;;;;5.25;3.00;;;;;;;17.65;100.00;99981.88;4994706;28;20232;-77
2021/06/21 03:08:18;;;;;;;5.13;3.30;;;;;;;17.66;100.00;99978.00;4995258;28;20829;-74
2021/06/21 03:10:44;;;;;;;3.10;2.80;;;;;;;17.57;100.00;99969.81;4991142;28;20290;-74
2021/06/21 03:13:11;;;;;;;5.70;3.38;;;;;;;17.62;100.00;99972.38;4991420;28;20783;-74
2021/06/21 03:15:36;;;;;;;7.28;3.35;;;;;;;17.54;100.00;99970.47;5011045;28;20228;-74
2021/06/21 03:18:02;;;;;;;4.43;2.97;;;;;;;17.59;100.00;99959.28;4982004;28;20184;-74
2021/06/21 03:20:28;;;;;;;6.35;3.47;;;;;;;17.61;100.00;99954.25;4997278;28;20232;-75
2021/06/21 03:22:57;;;;;;;3.83;3.33;;;;;;;17.48;100.00;99933.34;4985612;28;20216;-77
2021/06/21 03:25:26;;;;;;;4.60;3.70;;;;;;;17.43;100.00;99930.00;4996608;28;20597;-75
2021/06/21 03:27:52;;;;;;;6.18;3.90;;;;;;;17.36;100.00;99924.22;4993580;28;20214;-76
2021/06/21 03:30:18;;;;;;;4.85;4.35;;;;;;;17.35;100.00;99939.13;5002791;28;20213;-74
2021/06/21 03:32:45;;;;;;;5.72;4.18;;;;;;;17.42;100.00;99948.44;4978568;28;20212;-73
2021/06/21 03:35:12;;;;;;;6.30;4.50;;;;;;;17.48;100.00;99952.56;4986118;28;20207;-74
2021/06/21 03:37:37;;;;;;;5.00;3.97;;;;;;;17.55;100.00;99949.31;4978394;28;20197;-74
2021/06/21 03:40:09;;;;;;;6.75;4.50;;;;;;;17.44;100.00;99943.41;5009369;28;20699;-75
2021/06/21 03:42:35;;;;;;;8.88;5.60;;;;;;;17.40;100.00;99941.69;4966411;28;20628;-76
2021/06/21 03:45:00;;;;;;;5.88;5.20;;;;;;;17.44;100.00;99948.91;5012575;28;20244;-74
2021/06/21 03:47:26;;;;;;;5.82;5.28;;;;;;;17.53;100.00;99941.41;5009915;28;20224;-75
2021/06/21 03:49:54;;;;;;;6.55;5.00;;;;;;;17.46;100.00;99932.88;4997483;28;20222;-76
2021/06/21 03:52:21;;;;;;;5.80;5.22;;;;;;;17.47;100.00;99937.25;4985904;28;20589;-75
2021/06/21 03:55:05;;;;;;;6.03;5.40;;;;;;;17.45;100.00;99938.72;5012651;28;20203;-75
2021/06/21 03:57:34;;;;;;;6.63;5.80;;;;;;;17.56;100.00;99928.94;5011613;28;20247;-76
2021/06/21 04:00:00;;;;;;;6.65;5.95;;;;;;;17.53;100.00;99924.94;5012516;28;20196;-76
2021/06/21 04:02:30;;;;;;;8.48;6.10;;;;;;;17.47;100.00;99928.19;4956833;28;20218;-75
2021/06/21 04:04:58;;;;;;;6.60;6.00;;;;;;;17.45;100.00;99934.03;4983943;28;20247;-76
2021/06/21 04:07:23;;;;;;;6.55;5.95;;;;;;;17.45;100.00;99939.53;5029637;28;20806;-76
2021/06/21 04:09:51;;;;;;;6.45;5.80;;;;;;;17.58;100.00;99943.97;4996767;28;20962;-75
2021/06/21 04:12:17;;;;;;;7.45;5.50;;;;;;;17.61;100.00;99935.03;4982305;28;20711;-75
2021/06/21 04:14:46;;;;;;;8.30;6.00;;;;;;;17.59;100.00;99929.06;5000907;28;20218;-76
2021/06/21 04:17:16;;;;;;;8.65;6.03;;;;;;;17.61;100.00;99937.78;5007344;28;20239;-76
2021/06/21 04:19:42;;;;;;;7.75;5.85;;;;;;;17.75;100.00;99933.63;4997862;28;20183;-74
2021/06/21 04:22:07;;;;;;;6.30;5.70;;;;;;;17.60;100.00;99935.34;5009661;28;20230;-75
2021/06/21 04:24:33;;;;;;;6.00;5.32;;;;;;;17.59;100.00;99934.56;5010025;28;20197;-76
2021/06/21 04:26:59;;;;;;;5.80;5.20;;;;;;;17.73;100.00;99932.34;4961102;28;20221;-75
2021/06/21 04:29:24;;;;;;;6.47;5.15;;;;;;;17.76;100.00;99926.16;5011240;28;20567;-75
2021/06/21 04:31:50;;;;;;;5.78;5.18;;;;;;;17.74;100.00;99932.00;5008759;28;20926;-75
2021/06/21 04:34:18;;;;;;;6.13;4.35;;;;;;;17.74;100.00;99925.72;4993212;28;20212;-75
2021/06/21 04:36:44;;;;;;;5.45;4.10;;;;;;;17.79;100.00;99917.28;5022780;28;20224;-75
2021/06/21 04:39:12;;;;;;;5.03;4.30;;;;;;;17.92;100.00;99922.47;4986876;28;20196;-74
2021/06/21 04:41:38;;;;;;;4.47;3.85;;;;;;;18.18;100.00;99929.34;5007332;28;20216;-75
2021/06/21 04:44:04;;;;;;;4.57;4.00;;;;;;;18.09;100.00;99924.28;4996960;28;20598;-75
2021/06/21 04:46:33;;;;;;;4.60;3.40;;;;;;;17.87;100.00;99925.41;5012150;28;20205;-75
2021/06/21 04:49:05;;;;;;;4.97;3.58;;;;;;;17.94;100.00;99920.19;4994873;28;20208;-74
2021/06/21 04:51:32;;;;;;;4.75;3.20;;;;;;;18.05;100.00;99913.13;4978083;28;20682;-75
2021/06/21 04:53:58;;;;;;;3.40;2.95;;;;;;;18.11;100.00;99906.28;4980433;28;20290;-76
2021/06/21 04:56:26;;;;;;;3.35;3.05;;;;;;;18.09;100.00;99916.03;4998272;28;20808;-76
2021/06/21 04:58:52;;;;;;;3.17;2.97;;;;;;;18.12;100.00;99904.38;5013605;28;20188;-75
2021/06/21 05:01:18;;;;;;;4.38;3.20;;;;;;;17.95;100.00;99896.28;4996231;28;20231;-75
2021/06/21 05:03:44;;;;;;;3.28;2.97;;;;;;;17.87;100.00;99899.88;4998070;28;20224;-75
2021/06/21 05:06:09;;;;;;;2.50;2.30;;;;;;;17.92;100.00;99894.19;4997711;28;20256;-75
2021/06/21 05:08:40;;;;;;;3.22;2.80;;;;;;;18.00;100.00;99890.53;4997330;28;20185;-75
2021/06/21 05:11:06;;;;;;;3.35;3.05;;;;;;;18.15;100.00;99883.28;5012162;28;20665;-75
2021/06/21 05:13:34;;;;;;;2.55;2.42;;;;;;;18.12;100.00;99876.88;5013395;28;20225;-74
2021/06/21 05:16:04;;;;;;;4.88;4.30;;;;;;;18.17;100.00;99881.00;5007942;28;20216;-74
2021/06/21 05:18:29;;;;;;;2.35;2.20;;;;;;;18.15;100.00;99868.75;4978897;28;20185;-75
2021/06/21 05:20:57;;;;;;;2.67;2.20;;;;;;;18.14;100.00;99865.19;4980434;28;20232;-74
2021/06/21 05:23:26;;;;;;;2.25;2.08;;;;;;;17.94;100.00;99862.47;4999280;28;20209;-76
2021/06/21 05:25:51;;;;;;;1.73;1.60;;;;;;;17.89;100.00;99861.88;4997649;28;20217;-76
2021/06/21 05:28:19;;;;;;;2.63;2.20;;;;;;;17.83;100.00;99864.03;5011107;28;20208;-75
2021/06/21 05:30:45;;;;;;;6.22;5.50;;;;;;;18.14;100.00;99865.19;5000941;28;20255;-74
2021/06/21 05:33:14;;;;;;;2.20;1.70;;;;;;;17.97;100.00;99859.06;4980415;28;20543;-72
2021/06/21 05:35:41;;;;;;;1.90;1.60;;;;;;;17.93;100.00;99862.81;4995371;28;20228;-68
2021/06/21 05:38:06;;;;;;;2.75;1.73;;;;;;;18.00;100.00;99854.81;5013415;28;20600;-73
2021/06/21 05:40:35;;;;;;;2.00;1.90;;;;;;;17.98;100.00;99851.59;4995726;28;20244;-73
2021/06/21 05:43:03;;;;;;;2.10;1.90;;;;;;;18.03;100.00;99849.44;5010943;28;20205;-74
2021/06/21 05:45:31;;;;;;;2.03;1.90;;;;;;;18.02;100.00;99849.78;4980663;28;20695;-74
2021/06/21 05:47:56;;;;;;;1.90;1.80;;;;;;;17.95;100.00;99841.31;4977604;28;20522;-74
2021/06/21 05:50:22;;;;;;;2.58;1.80;;;;;;;17.89;100.00;99846.22;4964304;28;20231;-74
2021/06/21 05:52:49;;;;;;;5.60;2.70;;;;;;;17.89;100.00;99832.47;4995654;28;20209;-76
2021/06/21 05:55:18;;;;;;;2.60;1.80;;;;;;;17.81;100.00;99838.03;4979172;28;20231;-74
2021/06/21 05:57:44;;;;;;;2.05;1.60;;;;;;;17.98;100.00;99832.34;4993239;28;20193;-73
2021/06/21 06:00:13;;;;;;;2.60;1.55;;;;;;;18.17;100.00;99848.00;4959579;28;20292;-73
2021/06/21 06:02:39;;;;;;;2.38;1.95;;;;;;;18.25;100.00;99849.84;4977195;28;20252;-74
2021/06/21 06:05:05;;;;;;;3.88;1.80;;;;;;;18.10;100.00;99840.69;4977637;28;20185;-74
2021/06/21 06:07:30;;;;;;;2.08;1.65;;;;;;;18.27;100.00;99853.06;4975826;28;20229;-73
2021/06/21 06:09:57;;;;;;;3.78;1.70;;;;;;;18.40;100.00;99860.19;4982332;28;20202;-73
2021/06/21 06:12:23;;;;;;;1.85;1.60;;;;;;;18.23;100.00;99865.88;5001005;28;20241;-75
2021/06/21 06:14:49;;;;;;;1.42;1.33;;;;;;;18.03;100.00;99863.19;5013066;28;20263;-75
2021/06/21 06:17:14;;;;;;;1.50;1.00;;;;;;;18.10;100.00;99862.66;4995816;28;20224;-73
2021/06/21 06:19:40;;;;;;;1.30;1.20;;;;;;;18.21;100.00;99884.69;4996052;28;20658;-73
2021/06/21 06:22:06;;;;;;;2.05;1.40;;;;;;;18.05;100.00;99887.59;5010629;28;20236;-73
2021/06/21 06:24:33;;;;;;;1.40;1.20;;;;;;;17.97;100.00;99888.50;4979497;28;20695;-74
2021/06/21 06:26:58;;;;;;;1.20;1.10;;;;;;;17.86;100.00;99885.34;4978498;28;20231;-73
2021/06/21 06:29:24;;;;;;;2.10;1.60;;;;;;;17.72;100.00;99877.75;4975908;28;20189;-73
2021/06/21 06:31:50;;;;;;;1.80;1.00;;;;;;;17.70;100.00;99874.53;4958241;28;20231;-73
2021/06/21 06:34:16;;;;;;;1.88;1.20;;;;;;;17.74;100.00;99884.50;4993650;28;20213;-73
2021/06/21 06:36:42;;;;;;;0.93;0.80;;;;;;;17.71;100.00;99893.44;4994890;28;20232;-74
2021/06/21 06:39:07;;;;;;;1.50;1.10;;;;;;;17.93;100.00;99887.53;4994616;28;20247;-74
2021/06/21 06:41:35;;;;;;;0.82;0.82;;;;;;;18.11;100.00;99892.53;5009247;28;20954;-73
2021/06/21 06:44:05;;;;;;;0.70;0.70;;;;;;;18.10;100.00;99896.44;4999176;28;20204;-74
2021/06/21 06:46:33;;;;;;;0.85;0.70;;;;;;;18.12;100.00;99894.97;4998619;28;20221;-74
2021/06/21 06:49:01;;;;;;;1.08;0.95;;;;;;;18.25;100.00;99898.56;5010810;28;20716;-74
2021/06/21 06:51:30;;;;;;;1.23;0.80;;;;;;;18.01;100.00;99903.16;4990380;28;20225;-73
2021/06/21 06:54:11;;;;;;;0.70;0.70;;;;;;;18.07;100.00;99899.03;4975818;28;20317;-75
2021/06/21 06:56:58;;;;;;;1.17;0.77;;;;;;;18.21;100.00;99903.91;4975861;28;20225;-73
2021/06/21 06:59:28;;;;;;;0.60;0.60;;;;;;;18.38;100.00;99903.72;4977697;28;20255;-73
2021/06/21 07:01:59;;;;;;;1.27;0.70;;;;;;;18.42;100.00;99910.13;4990192;28;20686;-73
2021/06/21 07:04:24;;;;;;;1.17;0.68;;;;;;;18.40;100.00;99917.13;4992590;28;20224;-73
2021/06/21 07:06:55;;;;;;;0.50;0.47;;;;;;;18.32;100.00;99905.09;4990935;28;20254;-73
2021/06/21 07:09:24;;;;;;;1.35;0.70;;;;;;;18.32;100.00;99904.31;4991751;28;20195;-75
2021/06/21 07:11:51;;;;;;;1.13;0.70;;;;;;;18.25;100.00;99893.84;4993234;28;20246;-74
2021/06/21 07:14:16;;;;;;;1.27;0.77;;;;;;;18.01;100.00;99887.47;5017884;28;20223;-74
2021/06/21 07:16:42;;;;;;;1.30;0.60;;;;;;;18.19;100.00;99884.22;4978494;28;20233;-75
2021/06/21 07:19:11;;;;;;;0.70;0.60;;;;;;;18.16;100.00;99890.38;5010514;28;20631;-75
2021/06/21 07:21:39;;;;;;;0.50;0.50;;;;;;;18.16;100.00;99895.88;4993920;28;20245;-74
2021/06/21 07:24:08;;;;;;;0.63;0.50;;;;;;;18.22;100.00;99891.78;4978630;28;20295;-76
2021/06/21 07:26:37;;;;;;;0.57;0.57;;;;;;;18.22;100.00;99891.78;4993701;28;20224;-75
2021/06/21 07:29:05;;;;;;;0.60;0.60;;;;;;;-138.14;100.00;63448.66;4978168;28;20188;-76
2021/06/21 07:31:31;;;;;;;0.50;0.50;;;;;;;18.22;100.00;99891.78;4992646;28;20225;-74
2021/06/21 07:33:59;;;;;;;0.98;0.57;;;;;;;;;;4994065;28;20263;-73
2021/06/21 07:36:29;;;;;;;0.57;0.50;;;;;;;-138.14;100.00;63448.66;5009481;28;20232;-74
2021/06/21 07:38:55;;;;;;;0.60;0.60;;;;;;;-138.14;100.00;63448.66;4978618;28;20181;-74
2021/06/21 07:41:21;;;;;;;0.95;0.40;;;;;;;-138.14;100.00;63448.66;4992233;28;20228;-74
2021/06/21 07:43:46;;;;;;;1.00;0.55;;;;;;;-138.14;100.00;63448.66;5013448;28;20236;-75
2021/06/21 07:46:12;;;;;;;1.45;0.50;;;;;;;-138.14;nan;63448.66;4979035;28;20840;-75
2021/06/21 07:48:41;;;;;;;0.55;0.47;;;;;;;-138.14;100.00;63448.66;4974154;28;20211;-74
2021/06/21 07:51:15;;;;;;;0.30;0.30;;;;;;;-138.14;100.00;99891.78;4979130;28;20225;-75
2021/06/21 07:53:42;;;;;;;0.70;0.50;;;;;;;18.22;100.00;99891.78;4978064;28;20205;-75
2021/06/21 07:56:08;;;;;;;1.30;0.52;;;;;;;-138.14;100.00;63448.66;5009211;28;20232;-75
2021/06/21 07:58:37;;;;;;;0.40;0.40;;;;;;;-138.14;100.00;63448.66;4993249;28;20189;-76
2021/06/21 08:01:02;;;;;;;0.68;0.50;;;;;;;-138.14;100.00;63448.66;4973571;28;20332;-77
2021/06/21 08:03:28;;;;;;;1.30;0.50;;;;;;;-138.14;100.00;63448.66;4974256;28;20236;-74
2021/06/21 08:06:00;;;;;;;0.95;0.50;;;;;;;-138.14;100.00;63448.66;4992307;28;20221;-76
2021/06/21 08:08:26;;;;;;;1.17;0.50;;;;;;;-138.14;100.00;63448.66;4994705;28;20193;-75
2021/06/21 08:10:52;;;;;;;1.35;0.50;;;;;;;-138.14;100.00;63448.66;4991957;28;20212;-76
2021/06/21 08:13:17;;;;;;;0.65;0.65;;;;;;;-138.14;100.00;63448.66;5010295;28;20243;-76
2021/06/21 08:15:43;;;;;;;0.50;0.50;;;;;;;-138.14;100.00;63448.66;5016712;28;20231;-75
2021/06/21 08:18:12;;;;;;;0.50;0.50;;;;;;;-138.14;100.00;63448.66;4989825;28;20185;-76
2021/06/21 08:20:43;;;;;;;0.60;0.60;;;;;;;-138.14;100.00;63448.66;4956619;28;20221;-77
2021/06/21 08:23:11;;;;;;;1.23;0.50;;;;;;;-138.14;100.00;63448.66;5008475;28;20268;-76
2021/06/21 08:25:37;;;;;;;0.40;0.40;;;;;;;-138.14;100.00;63448.66;4993227;28;20306;-75
2021/06/21 08:28:07;;;;;;;0.50;0.50;;;;;;;-138.14;100.00;63448.66;4991957;28;20177;-76
2021/06/21 08:30:33;;;;;;;0.65;0.55;;;;;;;-138.14;100.00;63448.66;4976442;28;20679;-74
2021/06/21 08:33:01;;;;;;;0.50;0.50;;;;;;;-138.14;100.00;63448.66;4992776;28;20214;-75
2021/06/21 08:35:27;;;;;;;0.50;0.50;;;;;;;-138.14;100.00;63448.66;4975738;28;20614;-75
2021/06/21 08:37:55;;;;;;;0.57;0.57;;;;;;;-138.14;100.00;63448.66;4992826;28;20216;-75
2021/06/21 08:40:25;;;;;;;1.83;0.75;;;;;;;-138.14;100.00;63448.66;5008294;28;20181;-77
2021/06/21 08:42:51;;;;;;;0.50;0.50;;;;;;;-138.14;100.00;63448.66;4993046;28;20929;-77
2021/06/21 08:45:16;;;;;;;0.40;0.40;;;;;;;-138.14;100.00;63448.66;4982528;28;20180;-76
2021/06/21 08:47:43;;;;;;;1.23;0.60;;;;;;;-138.14;100.00;63448.66;4995176;28;20264;-76
2021/06/21 08:50:10;;;;;;;0.50;0.50;;;;;;;-138.14;100.00;63448.66;4992031;28;20781;-77
2021/06/21 08:52:40;;;;;;;0.50;0.50;;;;;;;-138.14;100.00;63448.66;4992866;28;20185;-76
2021/06/21 08:55:06;;;;;;;0.40;0.40;;;;;;;-138.14;100.00;63448.66;5009039;28;20204;-76
2021/06/21 08:57:40;;;;;;;0.40;0.40;;;;;;;-138.14;100.00;63448.66;4976287;28;20221;-77
2021/06/21 09:00:08;;;;;;;0.50;0.20;;;;;;;-138.14;100.00;63448.66;4993240;28;20193;-76
2021/06/21 09:02:36;;;;;;;0.38;0.38;;;;;;;-138.14;100.00;63448.66;4976161;28;20283;-76
2021/06/21 09:05:02;;;;;;;0.40;0.40;;;;;;;-138.14;100.00;63448.66;5009374;28;20181;-77
2021/06/21 09:07:32;;;;;;;2.03;0.50;;;;;;;-138.14;100.00;63448.66;4992383;28;20344;-76
2021/06/21 09:09:58;;;;;;;0.47;0.47;;;;;;;-138.14;100.00;63448.66;4993127;28;20191;-77
2021/06/21 09:12:30;;;;;;;1.73;0.50;;;;;;;-138.14;100.00;63448.66;5009783;28;20725;-76
2021/06/21 09:15:00;;;;;;;0.45;0.45;;;;;;;-138.14;100.00;63448.66;5013363;28;20200;-75
2021/06/21 09:17:29;;;;;;;0.30;0.30;;;;;;;-138.14;100.00;63448.66;5011588;28;20687;-76
2021/06/21 09:19:59;;;;;;;1.65;0.60;;;;;;;-138.14;100.00;63448.66;4978653;28;20247;-76
2021/06/21 09:22:38;;;;;;;0.50;0.50;;;;;;;-138.14;100.00;63448.66;5006057;28;20217;-75
2021/06/21 09:25:14;;;;;;;1.38;0.50;;;;;;;-138.14;100.00;63448.66;4977164;28;20197;-75
2021/06/21 09:27:41;;;;;;;0.60;0.60;;;;;;;-138.14;100.00;63448.66;5008498;28;20629;-76
2021/06/21 09:30:08;;;;;;;0.68;0.68;;;;;;;-138.14;100.00;63448.66;4974524;28;20253;-76
2021/06/21 09:32:52;;;;;;;0.70;0.70;;;;;;;-138.14;100.00;63448.66;5008922;28;20267;-77
2021/06/21 09:35:30;;;;;;;0.63;0.63;;;;;;;-138.14;100.00;63448.66;4976872;28;20263;-76
2021/06/21 09:38:00;;;;;;;1.10;0.70;;;;;;;-138.14;100.00;63448.66;4989373;28;20248;-78
2021/06/21 09:40:37;;;;;;;0.73;0.73;;;;;;;-138.14;100.00;63448.66;4977962;28;20589;-76
2021/06/21 09:43:22;;;;;;;0.88;0.88;;;;;;;-138.14;100.00;63448.66;4992014;28;20616;-75
2021/06/21 09:46:12;;;;;;;1.10;1.10;;;;;;;-138.14;100.00;63448.66;5007026;28;20704;-76
2021/06/21 09:48:49;;;;;;;1.10;0.90;;;;;;;-138.14;100.00;63448.66;5021558;28;20177;-78
2021/06/21 09:51:27;;;;;;;1.00;1.00;;;;;;;-138.14;100.00;63448.66;5011523;28;20232;-76
2021/06/21 09:54:03;;;;;;;1.35;1.25;;;;;;;-138.14;100.00;63448.66;5012567;28;20717;-76
2021/06/21 09:56:47;;;;;;;1.33;1.23;;;;;;;-138.14;100.00;63448.66;5012091;28;20236;-77
2021/06/21 09:59:15;;;;;;;2.00;1.40;;;;;;;-138.14;100.00;63448.66;4999097;28;20655;-76
2021/06/21 10:01:46;;;;;;;1.70;1.60;;;;;;;-138.14;100.00;63448.66;5011373;28;20221;-77
2021/06/21 10:04:24;;;;;;;1.70;1.60;;;;;;;-138.14;100.00;63448.66;4980530;28;20213;-76
2021/06/21 10:06:53;;;;;;;2.03;1.90;;;;;;;-138.14;100.00;63448.66;5013194;28;20227;-74
2021/06/21 10:09:23;;;;;;;2.45;1.92;;;;;;;-138.14;100.00;63448.66;4996188;28;20223;-75
2021/06/21 10:11:49;;;;;;;1.73;1.63;;;;;;;20.03;100.00;99896.38;4995372;28;20221;-76
2021/06/21 10:14:21;;;;;;;2.05;1.95;;;;;;;20.19;100.00;99898.03;4985833;28;20305;-75
2021/06/21 10:16:48;;;;;;;2.30;2.10;;;;;;;19.99;100.00;99895.50;4996866;28;20323;-74
2021/06/21 10:19:14;;;;;;;2.60;2.17;;;;;;;19.85;100.00;99897.88;5011647;28;20598;-75
2021/06/21 10:21:40;;;;;;;2.47;2.25;;;;;;;19.85;100.00;99897.88;5010985;28;20232;-74
2021/06/21 10:24:09;;;;;;;2.22;2.03;;;;;;;19.81;100.00;99888.66;4995427;28;20209;-74
2021/06/21 10:26:39;;;;;;;2.85;2.65;;;;;;;20.05;100.00;99894.06;4995511;28;20251;-75
2021/06/21 10:29:04;;;;;;;2.75;2.50;;;;;;;20.01;100.00;99904.22;4995677;28;20185;-74
2021/06/21 10:31:33;;;;;;;3.45;3.00;;;;;;;20.30;100.00;99896.34;5012273;28;20251;-74
2021/06/21 10:34:03;;;;;;;3.78;2.70;;;;;;;20.36;100.00;99899.66;4979489;28;20247;-75
2021/06/21 10:36:52;;;;;;;2.70;2.50;;;;;;;20.07;100.00;99914.66;4979846;28;20263;-75
2021/06/21 10:39:25;;;;;;;3.65;3.35;;;;;;;20.14;100.00;99908.50;4975202;28;20198;-75
2021/06/21 10:42:06;;;;;;;3.88;3.33;;;;;;;20.43;100.00;99914.44;4961937;28;20210;-75
2021/06/21 10:44:36;;;;;;;3.25;2.95;;;;;;;20.41;100.00;99914.00;5010748;28;20205;-74
2021/06/21 10:47:26;;;;;;;4.03;2.70;;;;;;;20.45;100.00;99910.16;5001292;28;20311;-75
2021/06/21 10:50:08;;;;;;;2.97;2.47;;;;;;;20.82;100.00;99907.97;5001389;28;20706;-75
2021/06/21 10:52:38;;;;;;;3.15;2.90;;;;;;;20.95;100.00;99913.03;4994288;28;20651;-75
2021/06/21 10:55:25;;;;;;;2.20;2.10;;;;;;;21.03;100.00;99915.63;4995253;28;20209;-74
2021/06/21 10:57:52;;;;;;;2.80;2.17;;;;;;;21.21;100.00;99919.59;4994703;28;20730;-74
2021/06/21 11:00:23;;;;;;;1.95;1.85;;;;;;;21.38;100.00;99900.66;4990637;28;20789;-73
2021/06/21 11:02:49;;;;;;;1.98;1.88;;;;;;;21.29;100.00;99902.81;4959800;28;20205;-75
2021/06/21 11:05:33;;;;;;;1.60;1.50;;;;;;;21.29;100.00;99905.56;5005452;28;20633;-76
2021/06/21 11:08:28;;;;;;;1.73;1.60;;;;;;;20.98;100.00;99906.78;5011120;28;20243;-74
2021/06/21 11:11:00;;;;;;;2.10;2.00;;;;;;;20.77;100.00;99914.56;4993031;28;20220;-74
2021/06/21 11:13:37;;;;;;;2.85;1.98;;;;;;;20.90;100.00;99916.09;4979037;28;20231;-74
2021/06/21 11:16:21;;;;;;;2.42;2.22;;;;;;;20.89;100.00;99914.47;5018196;28;20231;-75
2021/06/21 11:18:57;;;;;;;1.70;1.60;;;;;;;21.02;100.00;99915.97;5010364;28;20279;-74
2021/06/21 11:21:23;;;;;;;1.83;1.73;;;;;;;20.83;100.00;99921.44;4994492;28;20315;-75
2021/06/21 11:23:50;;;;;;;2.00;1.85;;;;;;;20.87;100.00;99925.06;4994485;28;20562;-75
2021/06/21 11:26:16;;;;;;;1.90;1.80;;;;;;;20.92;100.00;99930.34;4991959;28;20641;-75
2021/06/21 11:28:43;;;;;;;2.30;1.80;;;;;;;20.80;100.00;99930.41;4992336;28;20189;-76
2021/06/21 11:31:18;;;;;;;2.00;1.90;;;;;;;20.59;100.00;99932.63;4959028;28;20233;-75
2021/06/21 11:33:56;;;;;;;2.20;2.10;;;;;;;20.53;100.00;99928.53;4991975;28;20264;-74